sensor_id;sensor_type;location;lat;lon;timestamp;pressure;altitude;pressure_sealevel;temperature;humidity
52651;BME280;38537;47.226;39.702;2023-03-03T00:02:07;100946.59;;;4.28;61.18
52651;BME280;38537;47.226;39.702;2023-03-03T00:04:35;100930.75;;;4.40;60.63
52651;BME280;38537;47.226;39.702;2023-03-03T00:07:02;100931.94;;;4.27;60.42
52651;BME280;38537;47.226;39.702;2023-03-03T00:09:30;100939.22;;;4.17;60.50
52651;BME280;38537;47.226;39.702;2023-03-03T00:11:59;100957.97;;;4.14;61.12
52651;BME280;38537;47.226;39.702;2023-03-03T00:14:32;100940.41;;;4.21;61.09
52651;BME280;38537;47.226;39.702;2023-03-03T00:17:00;100937.28;;;4.34;61.09
52651;BME280;38537;47.226;39.702;2023-03-03T00:19:38;100925.81;;;4.25;60.48
52651;BME280;38537;47.226;39.702;2023-03-03T00:22:14;100948.75;;;4.42;61.24
52651;BME280;38537;47.226;39.702;2023-03-03T00:24:43;100914.19;;;4.23;61.01
52651;BME280;38537;47.226;39.702;2023-03-03T00:27:26;100926.63;;;4.42;61.55
52651;BME280;38537;47.226;39.702;2023-03-03T00:29:57;100896.09;;;4.32;61.02
52651;BME280;38537;47.226;39.702;2023-03-03T00:32:43;100906.91;;;4.56;61.48
52651;BME280;38537;47.226;39.702;2023-03-03T00:35:29;100919.53;;;5.12;59.70
52651;BME280;38537;47.226;39.702;2023-03-03T00:38:11;100892.34;;;5.31;59.38
52651;BME280;38537;47.226;39.702;2023-03-03T00:40:41;100908.28;;;5.45;58.53
52651;BME280;38537;47.226;39.702;2023-03-03T00:43:24;100901.06;;;5.44;58.97
52651;BME280;38537;47.226;39.702;2023-03-03T00:45:55;100897.84;;;5.53;58.24
52651;BME280;38537;47.226;39.702;2023-03-03T00:48:27;100914.91;;;5.44;58.70
52651;BME280;38537;47.226;39.702;2023-03-03T00:50:57;100892.53;;;5.24;58.22
52651;BME280;38537;47.226;39.702;2023-03-03T00:53:29;100921.97;;;5.30;59.19
52651;BME280;38537;47.226;39.702;2023-03-03T00:55:56;100910.00;;;5.03;58.74
52651;BME280;38537;47.226;39.702;2023-03-03T00:58:24;100894.00;;;4.83;59.30
52651;BME280;38537;47.226;39.702;2023-03-03T01:00:54;100904.72;;;5.01;59.55
52651;BME280;38537;47.226;39.702;2023-03-03T01:03:35;100921.72;;;5.32;58.85
52651;BME280;38537;47.226;39.702;2023-03-03T01:06:02;100900.53;;;5.47;58.80
52651;BME280;38537;47.226;39.702;2023-03-03T01:08:31;100877.78;;;5.72;57.97
52651;BME280;38537;47.226;39.702;2023-03-03T01:11:08;100890.59;;;6.05;57.34
52651;BME280;38537;47.226;39.702;2023-03-03T01:13:42;100856.56;;;5.83;57.49
52651;BME280;38537;47.226;39.702;2023-03-03T01:16:10;100882.84;;;6.12;56.51
52651;BME280;38537;47.226;39.702;2023-03-03T01:18:38;100896.69;;;6.44;57.04
52651;BME280;38537;47.226;39.702;2023-03-03T01:21:08;100895.31;;;6.47;56.20
52651;BME280;38537;47.226;39.702;2023-03-03T01:23:38;100882.69;;;6.24;56.88
52651;BME280;38537;47.226;39.702;2023-03-03T01:26:06;100874.91;;;5.89;57.18
52651;BME280;38537;47.226;39.702;2023-03-03T01:28:33;100866.72;;;5.45;57.46
52651;BME280;38537;47.226;39.702;2023-03-03T01:31:02;100877.88;;;5.50;58.24
52651;BME280;38537;47.226;39.702;2023-03-03T01:33:32;100876.66;;;5.41;58.02
52651;BME280;38537;47.226;39.702;2023-03-03T01:36:00;100878.66;;;5.46;57.78
52651;BME280;38537;47.226;39.702;2023-03-03T01:38:29;100899.09;;;5.40;58.93
52651;BME280;38537;47.226;39.702;2023-03-03T01:40:58;100901.84;;;5.13;58.60
52651;BME280;38537;47.226;39.702;2023-03-03T01:43:27;100897.22;;;4.75;59.32
52651;BME280;38537;47.226;39.702;2023-03-03T01:48:37;100878.13;;;4.73;61.17
52651;BME280;38537;47.226;39.702;2023-03-03T01:51:28;100879.41;;;4.66;60.54
52651;BME280;38537;47.226;39.702;2023-03-03T01:54:05;100903.22;;;4.89;60.05
52651;BME280;38537;47.226;39.702;2023-03-03T01:56:37;100898.44;;;4.62;60.56
52651;BME280;38537;47.226;39.702;2023-03-03T01:59:28;100894.00;;;4.61;61.30
52651;BME280;38537;47.226;39.702;2023-03-03T02:01:57;100891.78;;;4.41;60.81
52651;BME280;38537;47.226;39.702;2023-03-03T02:04:27;100900.03;;;4.58;60.81
52651;BME280;38537;47.226;39.702;2023-03-03T02:07:01;100900.63;;;4.60;61.66
52651;BME280;38537;47.226;39.702;2023-03-03T02:09:32;100874.19;;;4.69;60.76
52651;BME280;38537;47.226;39.702;2023-03-03T02:12:06;100896.44;;;4.79;61.21
52651;BME280;38537;47.226;39.702;2023-03-03T02:14:34;100885.13;;;4.81;60.46
52651;BME280;38537;47.226;39.702;2023-03-03T02:17:01;100861.53;;;4.73;60.56
52651;BME280;38537;47.226;39.702;2023-03-03T02:22:33;100864.41;;;4.83;60.92
52651;BME280;38537;47.226;39.702;2023-03-03T02:25:04;100872.00;;;4.93;60.94
52651;BME280;38537;47.226;39.702;2023-03-03T02:27:35;100884.16;;;5.14;60.03
52651;BME280;38537;47.226;39.702;2023-03-03T02:30:29;100873.03;;;5.36;61.03
52651;BME280;38537;47.226;39.702;2023-03-03T02:32:56;100858.50;;;5.24;60.02
52651;BME280;38537;47.226;39.702;2023-03-03T02:35:33;100855.56;;;5.35;60.05
52651;BME280;38537;47.226;39.702;2023-03-03T02:44:07;100854.88;;;5.23;61.03
52651;BME280;38537;47.226;39.702;2023-03-03T02:46:39;100859.00;;;4.94;60.62
52651;BME280;38537;47.226;39.702;2023-03-03T02:49:09;100862.97;;;5.03;60.49
52651;BME280;38537;47.226;39.702;2023-03-03T02:51:37;100855.44;;;4.76;60.21
52651;BME280;38537;47.226;39.702;2023-03-03T02:54:06;100854.19;;;4.84;60.43
52651;BME280;38537;47.226;39.702;2023-03-03T02:56:35;100857.44;;;5.03;61.04
52651;BME280;38537;47.226;39.702;2023-03-03T02:59:03;100853.34;;;4.83;60.77
52651;BME280;38537;47.226;39.702;2023-03-03T03:01:35;100858.75;;;4.73;60.26
52651;BME280;38537;47.226;39.702;2023-03-03T03:04:21;100842.78;;;4.80;61.53
52651;BME280;38537;47.226;39.702;2023-03-03T03:06:51;100857.59;;;4.69;60.89
52651;BME280;38537;47.226;39.702;2023-03-03T03:09:20;100859.63;;;4.57;61.22
52651;BME280;38537;47.226;39.702;2023-03-03T03:11:50;100843.25;;;4.29;61.39
52651;BME280;38537;47.226;39.702;2023-03-03T03:14:20;100846.00;;;4.29;61.67
52651;BME280;38537;47.226;39.702;2023-03-03T03:16:50;100848.19;;;4.27;61.87
52651;BME280;38537;47.226;39.702;2023-03-03T03:19:19;100851.53;;;4.29;61.80
52651;BME280;38537;47.226;39.702;2023-03-03T03:21:47;100847.19;;;4.16;62.19
52651;BME280;38537;47.226;39.702;2023-03-03T03:24:15;100840.78;;;4.10;62.48
52651;BME280;38537;47.226;39.702;2023-03-03T03:26:47;100857.25;;;4.05;62.63
52651;BME280;38537;47.226;39.702;2023-03-03T03:29:14;100858.84;;;4.01;62.41
52651;BME280;38537;47.226;39.702;2023-03-03T03:31:42;100848.91;;;4.00;63.44
52651;BME280;38537;47.226;39.702;2023-03-03T03:34:09;100850.97;;;3.93;62.94
52651;BME280;38537;47.226;39.702;2023-03-03T03:36:37;100839.34;;;4.08;63.23
52651;BME280;38537;47.226;39.702;2023-03-03T03:39:16;100838.44;;;4.02;62.78
52651;BME280;38537;47.226;39.702;2023-03-03T03:41:46;100842.88;;;4.03;62.88
52651;BME280;38537;47.226;39.702;2023-03-03T03:44:18;100835.41;;;4.04;63.34
52651;BME280;38537;47.226;39.702;2023-03-03T03:46:46;100856.09;;;4.01;63.06
52651;BME280;38537;47.226;39.702;2023-03-03T03:49:14;100851.56;;;3.95;63.44
52651;BME280;38537;47.226;39.702;2023-03-03T03:51:41;100824.56;;;3.81;63.45
52651;BME280;38537;47.226;39.702;2023-03-03T03:54:12;100842.31;;;3.85;63.73
52651;BME280;38537;47.226;39.702;2023-03-03T03:56:41;100840.03;;;3.82;63.89
52651;BME280;38537;47.226;39.702;2023-03-03T03:59:09;100819.56;;;3.61;63.96
52651;BME280;38537;47.226;39.702;2023-03-03T04:01:37;100827.16;;;3.54;64.01
52651;BME280;38537;47.226;39.702;2023-03-03T04:04:04;100839.28;;;3.53;64.15
52651;BME280;38537;47.226;39.702;2023-03-03T04:06:33;100833.41;;;3.49;64.45
52651;BME280;38537;47.226;39.702;2023-03-03T04:09:01;100838.63;;;3.62;64.74
52651;BME280;38537;47.226;39.702;2023-03-03T04:11:29;100834.09;;;3.56;64.87
52651;BME280;38537;47.226;39.702;2023-03-03T04:13:56;100839.88;;;3.55;65.19
52651;BME280;38537;47.226;39.702;2023-03-03T04:16:24;100856.84;;;3.47;64.88
52651;BME280;38537;47.226;39.702;2023-03-03T04:18:51;100821.63;;;3.37;64.82
52651;BME280;38537;47.226;39.702;2023-03-03T04:21:19;100807.56;;;3.22;65.17
52651;BME280;38537;47.226;39.702;2023-03-03T04:23:49;100823.13;;;3.28;65.23
52651;BME280;38537;47.226;39.702;2023-03-03T04:26:16;100840.38;;;3.35;65.23
52651;BME280;38537;47.226;39.702;2023-03-03T04:28:45;100833.31;;;3.27;65.11
52651;BME280;38537;47.226;39.702;2023-03-03T04:31:13;100833.84;;;3.24;65.54
52651;BME280;38537;47.226;39.702;2023-03-03T04:33:40;100814.31;;;3.14;65.52
52651;BME280;38537;47.226;39.702;2023-03-03T04:36:08;100812.25;;;3.21;65.18
52651;BME280;38537;47.226;39.702;2023-03-03T04:38:36;100820.19;;;3.18;65.69
52651;BME280;38537;47.226;39.702;2023-03-03T04:41:04;100822.34;;;3.16;65.59
52651;BME280;38537;47.226;39.702;2023-03-03T04:43:35;100847.03;;;3.22;65.48
52651;BME280;38537;47.226;39.702;2023-03-03T04:46:04;100836.06;;;3.10;65.56
52651;BME280;38537;47.226;39.702;2023-03-03T04:48:31;100838.56;;;3.12;65.66
52651;BME280;38537;47.226;39.702;2023-03-03T04:50:58;100838.41;;;3.02;65.56
52651;BME280;38537;47.226;39.702;2023-03-03T04:53:26;100831.19;;;3.01;65.81
52651;BME280;38537;47.226;39.702;2023-03-03T04:55:54;100840.31;;;3.01;65.86
52651;BME280;38537;47.226;39.702;2023-03-03T04:58:21;100818.53;;;2.88;65.56
52651;BME280;38537;47.226;39.702;2023-03-03T05:00:55;100846.06;;;3.00;66.43
52651;BME280;38537;47.226;39.702;2023-03-03T05:03:25;100833.84;;;3.24;67.17
52651;BME280;38537;47.226;39.702;2023-03-03T05:05:53;100842.91;;;3.08;66.01
52651;BME280;38537;47.226;39.702;2023-03-03T05:08:20;100834.69;;;3.25;66.03
52651;BME280;38537;47.226;39.702;2023-03-03T05:10:52;100841.88;;;3.42;66.04
52651;BME280;38537;47.226;39.702;2023-03-03T05:13:19;100852.84;;;3.54;65.33
52651;BME280;38537;47.226;39.702;2023-03-03T05:15:51;100853.44;;;3.56;65.11
52651;BME280;38537;47.226;39.702;2023-03-03T05:18:19;100852.09;;;3.59;64.58
52651;BME280;38537;47.226;39.702;2023-03-03T05:20:48;100852.19;;;3.64;64.33
52651;BME280;38537;47.226;39.702;2023-03-03T05:23:16;100835.78;;;3.57;64.69
52651;BME280;38537;47.226;39.702;2023-03-03T05:25:43;100860.63;;;3.74;63.94
52651;BME280;38537;47.226;39.702;2023-03-03T05:28:12;100840.06;;;3.65;63.82
52651;BME280;38537;47.226;39.702;2023-03-03T05:30:39;100834.09;;;3.73;64.21
52651;BME280;38537;47.226;39.702;2023-03-03T05:33:07;100861.56;;;3.79;63.46
52651;BME280;38537;47.226;39.702;2023-03-03T05:35:34;100852.44;;;3.79;63.28
52651;BME280;38537;47.226;39.702;2023-03-03T05:38:01;100814.28;;;3.59;63.59
52651;BME280;38537;47.226;39.702;2023-03-03T05:40:31;100851.75;;;3.72;63.65
52651;BME280;38537;47.226;39.702;2023-03-03T05:42:58;100841.28;;;3.74;63.85
52651;BME280;38537;47.226;39.702;2023-03-03T05:45:26;100846.41;;;3.82;63.33
52651;BME280;38537;47.226;39.702;2023-03-03T05:47:53;100846.75;;;3.86;63.29
52651;BME280;38537;47.226;39.702;2023-03-03T05:50:21;100832.00;;;3.80;63.31
52651;BME280;38537;47.226;39.702;2023-03-03T05:52:50;100844.47;;;3.99;63.17
52651;BME280;38537;47.226;39.702;2023-03-03T05:55:18;100842.03;;;4.03;63.20
52651;BME280;38537;47.226;39.702;2023-03-03T05:57:48;100842.75;;;4.15;62.94
52651;BME280;38537;47.226;39.702;2023-03-03T06:00:16;100858.25;;;4.16;63.02
52651;BME280;38537;47.226;39.702;2023-03-03T06:02:43;100839.81;;;4.22;62.60
52651;BME280;38537;47.226;39.702;2023-03-03T06:05:11;100837.63;;;4.24;62.31
52651;BME280;38537;47.226;39.702;2023-03-03T06:07:38;100842.78;;;4.37;62.26
52651;BME280;38537;47.226;39.702;2023-03-03T06:10:06;100830.50;;;4.28;61.63
52651;BME280;38537;47.226;39.702;2023-03-03T06:12:36;100831.22;;;4.40;61.51
52651;BME280;38537;47.226;39.702;2023-03-03T06:15:05;100840.16;;;4.47;61.42
52651;BME280;38537;47.226;39.702;2023-03-03T06:17:33;100830.88;;;4.58;62.15
52651;BME280;38537;47.226;39.702;2023-03-03T06:20:01;100836.41;;;4.58;60.68
52651;BME280;38537;47.226;39.702;2023-03-03T06:22:30;100831.09;;;4.73;61.01
52651;BME280;38537;47.226;39.702;2023-03-03T06:24:58;100815.59;;;4.72;59.94
52651;BME280;38537;47.226;39.702;2023-03-03T06:27:25;100829.19;;;5.01;59.51
52651;BME280;38537;47.226;39.702;2023-03-03T06:29:52;100831.06;;;5.22;59.92
52651;BME280;38537;47.226;39.702;2023-03-03T06:32:20;100802.19;;;5.13;58.57
52651;BME280;38537;47.226;39.702;2023-03-03T06:34:47;100808.19;;;5.32;57.66
52651;BME280;38537;47.226;39.702;2023-03-03T06:37:15;100825.94;;;5.68;57.99
52651;BME280;38537;47.226;39.702;2023-03-03T06:39:43;100814.94;;;5.78;57.92
52651;BME280;38537;47.226;39.702;2023-03-03T06:42:10;100811.34;;;6.14;57.86
52651;BME280;38537;47.226;39.702;2023-03-03T06:44:38;100831.50;;;6.47;56.08
52651;BME280;38537;47.226;39.702;2023-03-03T06:47:05;100817.09;;;6.55;55.37
52651;BME280;38537;47.226;39.702;2023-03-03T06:49:33;100799.34;;;6.56;55.55
52651;BME280;38537;47.226;39.702;2023-03-03T06:52:09;100813.03;;;6.78;55.91
52651;BME280;38537;47.226;39.702;2023-03-03T06:54:37;100806.72;;;7.03;56.54
52651;BME280;38537;47.226;39.702;2023-03-03T06:57:15;100817.63;;;7.35;55.87
52651;BME280;38537;47.226;39.702;2023-03-03T06:59:51;100805.69;;;7.65;55.18
52651;BME280;38537;47.226;39.702;2023-03-03T07:02:20;100823.72;;;8.03;54.10
52651;BME280;38537;47.226;39.702;2023-03-03T07:04:48;100817.34;;;7.92;53.36
52651;BME280;38537;47.226;39.702;2023-03-03T07:07:23;100798.94;;;8.21;53.58
52651;BME280;38537;47.226;39.702;2023-03-03T07:09:53;100813.81;;;8.66;52.66
52651;BME280;38537;47.226;39.702;2023-03-03T07:12:27;100801.81;;;8.81;51.39
52651;BME280;38537;47.226;39.702;2023-03-03T07:15:34;100816.47;;;8.97;50.29
52651;BME280;38537;47.226;39.702;2023-03-03T07:18:01;100810.25;;;9.15;52.42
52651;BME280;38537;47.226;39.702;2023-03-03T07:20:35;100796.78;;;8.83;51.72
52651;BME280;38537;47.226;39.702;2023-03-03T07:23:19;100785.31;;;8.89;52.21
52651;BME280;38537;47.226;39.702;2023-03-03T07:25:48;100799.56;;;8.83;49.84
52651;BME280;38537;47.226;39.702;2023-03-03T07:28:23;100807.38;;;8.81;50.27
52651;BME280;38537;47.226;39.702;2023-03-03T07:30:56;100808.22;;;8.76;50.15
52651;BME280;38537;47.226;39.702;2023-03-03T07:33:34;100797.47;;;8.54;48.42
52651;BME280;38537;47.226;39.702;2023-03-03T07:36:17;100789.84;;;8.75;50.24
52651;BME280;38537;47.226;39.702;2023-03-03T07:38:52;100784.72;;;8.98;49.67
52651;BME280;38537;47.226;39.702;2023-03-03T07:41:21;100793.47;;;9.25;49.54
52651;BME280;38537;47.226;39.702;2023-03-03T07:43:54;100788.00;;;9.49;49.25
52651;BME280;38537;47.226;39.702;2023-03-03T07:48:54;100786.59;;;9.80;47.60
52651;BME280;38537;47.226;39.702;2023-03-03T07:51:28;100779.53;;;9.93;48.37
52651;BME280;38537;47.226;39.702;2023-03-03T07:54:29;100790.94;;;10.25;47.44
52651;BME280;38537;47.226;39.702;2023-03-03T07:57:04;100781.94;;;10.00;46.97
52651;BME280;38537;47.226;39.702;2023-03-03T07:59:36;100778.53;;;9.79;47.00
52651;BME280;38537;47.226;39.702;2023-03-03T08:02:15;100757.41;;;9.73;46.89
52651;BME280;38537;47.226;39.702;2023-03-03T08:04:47;100771.56;;;9.76;47.15
52651;BME280;38537;47.226;39.702;2023-03-03T08:07:21;100775.19;;;9.77;46.03
52651;BME280;38537;47.226;39.702;2023-03-03T08:09:59;100773.25;;;9.48;45.04
52651;BME280;38537;47.226;39.702;2023-03-03T08:12:41;100779.31;;;9.16;45.44
52651;BME280;38537;47.226;39.702;2023-03-03T08:15:16;100765.50;;;9.01;46.62
52651;BME280;38537;47.226;39.702;2023-03-03T08:17:45;100770.22;;;9.01;47.17
52651;BME280;38537;47.226;39.702;2023-03-03T08:22:56;100749.75;;;8.81;46.20
52651;BME280;38537;47.226;39.702;2023-03-03T08:25:23;100756.41;;;8.85;46.17
52651;BME280;38537;47.226;39.702;2023-03-03T08:27:50;100729.16;;;8.77;46.08
52651;BME280;38537;47.226;39.702;2023-03-03T08:30:17;100751.88;;;8.94;45.91
52651;BME280;38537;47.226;39.702;2023-03-03T08:32:45;100749.44;;;8.83;45.67
52651;BME280;38537;47.226;39.702;2023-03-03T08:35:12;100754.59;;;8.61;45.22
52651;BME280;38537;47.226;39.702;2023-03-03T08:37:39;100736.78;;;8.56;45.75
52651;BME280;38537;47.226;39.702;2023-03-03T08:40:07;100748.63;;;8.82;46.02
52651;BME280;38537;47.226;39.702;2023-03-03T08:42:35;100731.84;;;8.92;46.09
52651;BME280;38537;47.226;39.702;2023-03-03T08:45:02;100724.09;;;9.23;46.08
52651;BME280;38537;47.226;39.702;2023-03-03T08:47:30;100717.38;;;9.30;45.52
52651;BME280;38537;47.226;39.702;2023-03-03T08:49:57;100703.91;;;9.37;45.50
52651;BME280;38537;47.226;39.702;2023-03-03T08:52:24;100696.75;;;9.59;45.15
52651;BME280;38537;47.226;39.702;2023-03-03T08:54:52;100704.59;;;9.81;45.51
52651;BME280;38537;47.226;39.702;2023-03-03T08:57:20;100721.59;;;10.09;45.04
52651;BME280;38537;47.226;39.702;2023-03-03T08:59:47;100718.16;;;9.93;44.03
52651;BME280;38537;47.226;39.702;2023-03-03T09:02:14;100718.31;;;10.02;44.99
52651;BME280;38537;47.226;39.702;2023-03-03T09:04:43;100702.75;;;10.24;45.18
52651;BME280;38537;47.226;39.702;2023-03-03T09:07:10;100704.66;;;10.29;43.83
52651;BME280;38537;47.226;39.702;2023-03-03T09:09:37;100698.81;;;10.25;44.32
52651;BME280;38537;47.226;39.702;2023-03-03T09:12:18;100702.38;;;10.55;44.66
52651;BME280;38537;47.226;39.702;2023-03-03T09:14:46;100696.97;;;10.82;44.18
52651;BME280;38537;47.226;39.702;2023-03-03T09:17:29;100694.53;;;10.94;42.68
52651;BME280;38537;47.226;39.702;2023-03-03T09:20:09;100688.69;;;10.91;41.69
52651;BME280;38537;47.226;39.702;2023-03-03T09:22:43;100695.41;;;11.09;43.02
52651;BME280;38537;47.226;39.702;2023-03-03T09:25:33;100676.63;;;10.95;42.07
52651;BME280;38537;47.226;39.702;2023-03-03T09:28:02;100671.78;;;11.01;42.64
52651;BME280;38537;47.226;39.702;2023-03-03T09:30:49;100670.78;;;11.11;42.59
52651;BME280;38537;47.226;39.702;2023-03-03T09:33:43;100676.94;;;11.26;42.41
52651;BME280;38537;47.226;39.702;2023-03-03T09:36:37;100666.94;;;11.07;40.31
52651;BME280;38537;47.226;39.702;2023-03-03T09:39:21;100666.03;;;11.11;41.55
52651;BME280;38537;47.226;39.702;2023-03-03T09:50:09;100662.13;;;11.45;40.32
52651;BME280;38537;47.226;39.702;2023-03-03T09:53:02;100662.13;;;11.58;40.66
52651;BME280;38537;47.226;39.702;2023-03-03T09:55:53;100662.66;;;11.60;40.06
52651;BME280;38537;47.226;39.702;2023-03-03T10:01:50;100638.09;;;11.71;40.32
52651;BME280;38537;47.226;39.702;2023-03-03T10:07:34;100632.44;;;11.76;38.76
52651;BME280;38537;47.226;39.702;2023-03-03T10:10:20;100620.31;;;11.67;38.82
52651;BME280;38537;47.226;39.702;2023-03-03T10:18:28;100594.09;;;11.63;37.67
52651;BME280;38537;47.226;39.702;2023-03-03T10:24:14;100595.72;;;11.50;38.69
52651;BME280;38537;47.226;39.702;2023-03-03T10:29:57;100594.03;;;11.36;38.75
52651;BME280;38537;47.226;39.702;2023-03-03T10:32:46;100582.06;;;11.62;39.20
52651;BME280;38537;47.226;39.702;2023-03-03T10:35:28;100573.69;;;11.76;39.28
52651;BME280;38537;47.226;39.702;2023-03-03T10:43:54;100560.09;;;12.11;39.77
52651;BME280;38537;47.226;39.702;2023-03-03T10:55:37;100554.00;;;11.67;37.65
52651;BME280;38537;47.226;39.702;2023-03-03T11:01:44;100546.03;;;11.47;38.34
52651;BME280;38537;47.226;39.702;2023-03-03T11:09:56;100532.94;;;11.29;37.93
52651;BME280;38537;47.226;39.702;2023-03-03T11:15:12;100531.31;;;11.55;38.65
52651;BME280;38537;47.226;39.702;2023-03-03T11:17:58;100526.53;;;11.69;38.72
52651;BME280;38537;47.226;39.702;2023-03-03T11:34:14;100516.59;;;11.50;36.17
52651;BME280;38537;47.226;39.702;2023-03-03T11:37:07;100508.16;;;11.09;36.26
52651;BME280;38537;47.226;39.702;2023-03-03T11:39:36;100499.38;;;11.02;38.38
52651;BME280;38537;47.226;39.702;2023-03-03T11:45:26;100492.53;;;11.08;38.06
52651;BME280;38537;47.226;39.702;2023-03-03T11:50:38;100486.03;;;10.98;36.97
52651;BME280;38537;47.226;39.702;2023-03-03T11:56:23;100480.75;;;10.97;37.66
52651;BME280;38537;47.226;39.702;2023-03-03T11:59:00;100472.97;;;10.94;37.93
52651;BME280;38537;47.226;39.702;2023-03-03T12:01:43;100474.97;;;11.21;37.71
52651;BME280;38537;47.226;39.702;2023-03-03T12:04:15;100469.66;;;10.78;36.75
52651;BME280;38537;47.226;39.702;2023-03-03T12:12:41;100455.81;;;11.28;37.00
52651;BME280;38537;47.226;39.702;2023-03-03T12:18:34;100453.38;;;11.90;38.43
52651;BME280;38537;47.226;39.702;2023-03-03T12:24:00;100456.03;;;11.95;36.74
52651;BME280;38537;47.226;39.702;2023-03-03T12:29:39;100442.38;;;11.93;36.36
52651;BME280;38537;47.226;39.702;2023-03-03T12:35:19;100443.91;;;11.36;35.21
52651;BME280;38537;47.226;39.702;2023-03-03T12:40:30;100450.31;;;11.09;36.68
52651;BME280;38537;47.226;39.702;2023-03-03T12:43:43;100443.91;;;10.95;35.43
52651;BME280;38537;47.226;39.702;2023-03-03T12:49:05;100411.91;;;10.87;37.36
52651;BME280;38537;47.226;39.702;2023-03-03T12:51:41;100432.72;;;10.95;37.08
52651;BME280;38537;47.226;39.702;2023-03-03T12:57:07;100387.69;;;10.55;37.07
52651;BME280;38537;47.226;39.702;2023-03-03T13:05:33;100407.06;;;11.07;37.26
52651;BME280;38537;47.226;39.702;2023-03-03T13:08:32;100393.41;;;10.91;36.40
52651;BME280;38537;47.226;39.702;2023-03-03T13:14:03;100397.00;;;11.33;38.08
52651;BME280;38537;47.226;39.702;2023-03-03T13:16:43;100382.84;;;10.88;37.01
52651;BME280;38537;47.226;39.702;2023-03-03T13:19:26;100383.03;;;11.06;37.84
52651;BME280;38537;47.226;39.702;2023-03-03T13:22:23;100386.13;;;11.45;37.62
52651;BME280;38537;47.226;39.702;2023-03-03T13:30:54;100362.84;;;11.36;38.16
52651;BME280;38537;47.226;39.702;2023-03-03T13:33:27;100380.03;;;11.16;36.90
52651;BME280;38537;47.226;39.702;2023-03-03T13:36:03;100366.81;;;10.94;36.80
52651;BME280;38537;47.226;39.702;2023-03-03T13:38:49;100376.44;;;10.88;36.79
52651;BME280;38537;47.226;39.702;2023-03-03T13:41:27;100362.16;;;10.89;37.43
52651;BME280;38537;47.226;39.702;2023-03-03T13:52:11;100385.91;;;10.46;36.73
52651;BME280;38537;47.226;39.702;2023-03-03T13:57:33;100351.34;;;10.42;37.95
52651;BME280;38537;47.226;39.702;2023-03-03T14:00:32;100358.22;;;10.17;37.35
52651;BME280;38537;47.226;39.702;2023-03-03T14:05:52;100345.06;;;9.85;38.27
52651;BME280;38537;47.226;39.702;2023-03-03T14:11:13;100351.63;;;10.26;38.33
52651;BME280;38537;47.226;39.702;2023-03-03T14:19:25;100354.91;;;10.75;38.47
52651;BME280;38537;47.226;39.702;2023-03-03T14:24:31;100340.84;;;10.93;37.90
52651;BME280;38537;47.226;39.702;2023-03-03T14:27:24;100313.50;;;11.18;38.34
52651;BME280;38537;47.226;39.702;2023-03-03T14:29:53;100333.72;;;11.37;38.30
52651;BME280;38537;47.226;39.702;2023-03-03T14:32:26;100347.97;;;11.63;37.99
52651;BME280;38537;47.226;39.702;2023-03-03T14:35:17;100338.72;;;11.76;37.52
52651;BME280;38537;47.226;39.702;2023-03-03T14:37:46;100349.84;;;11.90;37.67
52651;BME280;38537;47.226;39.702;2023-03-03T14:40:30;100344.00;;;11.78;36.50
52651;BME280;38537;47.226;39.702;2023-03-03T14:43:00;100334.72;;;11.55;36.64
52651;BME280;38537;47.226;39.702;2023-03-03T14:45:39;100331.72;;;11.51;36.65
52651;BME280;38537;47.226;39.702;2023-03-03T14:48:22;100323.69;;;11.36;36.33
52651;BME280;38537;47.226;39.702;2023-03-03T14:50:56;100320.25;;;11.03;36.59
52651;BME280;38537;47.226;39.702;2023-03-03T14:53:38;100315.28;;;10.86;36.48
52651;BME280;38537;47.226;39.702;2023-03-03T14:56:22;100331.53;;;10.84;36.97
52651;BME280;38537;47.226;39.702;2023-03-03T14:58:52;100321.50;;;10.56;37.31
52651;BME280;38537;47.226;39.702;2023-03-03T15:01:35;100317.66;;;10.38;37.10
52651;BME280;38537;47.226;39.702;2023-03-03T15:11:59;100337.69;;;10.26;37.99
52651;BME280;38537;47.226;39.702;2023-03-03T15:14:34;100323.53;;;9.90;36.66
52651;BME280;38537;47.226;39.702;2023-03-03T15:20:04;100334.25;;;9.65;37.51
52651;BME280;38537;47.226;39.702;2023-03-03T15:22:47;100346.13;;;9.89;37.71
52651;BME280;38537;47.226;39.702;2023-03-03T15:28:31;100343.94;;;9.86;37.85
52651;BME280;38537;47.226;39.702;2023-03-03T15:42:26;100340.16;;;9.44;37.58
52651;BME280;38537;47.226;39.702;2023-03-03T15:45:24;100351.19;;;9.12;37.72
52651;BME280;38537;47.226;39.702;2023-03-03T15:48:29;100343.03;;;8.97;37.61
52651;BME280;38537;47.226;39.702;2023-03-03T15:56:28;100354.88;;;9.07;38.67
52651;BME280;38537;47.226;39.702;2023-03-03T16:04:09;100341.63;;;8.75;37.84
52651;BME280;38537;47.226;39.702;2023-03-03T16:12:30;100338.91;;;8.70;37.55
52651;BME280;38537;47.226;39.702;2023-03-03T16:26:01;100332.41;;;7.64;38.72
52651;BME280;38537;47.226;39.702;2023-03-03T16:31:17;100318.53;;;7.25;39.29
52651;BME280;38537;47.226;39.702;2023-03-03T16:34:06;100324.66;;;7.17;39.71
52651;BME280;38537;47.226;39.702;2023-03-03T16:59:23;100302.38;;;6.83;40.56
52651;BME280;38537;47.226;39.702;2023-03-03T17:02:18;100297.41;;;6.80;41.30
52651;BME280;38537;47.226;39.702;2023-03-03T17:05:05;100289.88;;;6.91;41.39
52651;BME280;38537;47.226;39.702;2023-03-03T17:16:10;100288.00;;;7.20;40.06
52651;BME280;38537;47.226;39.702;2023-03-03T17:23:00;100301.53;;;7.32;40.94
52651;BME280;38537;47.226;39.702;2023-03-03T17:25:34;100281.81;;;7.33;40.31
52651;BME280;38537;47.226;39.702;2023-03-03T17:39:32;100272.09;;;7.36;40.21
52651;BME280;38537;47.226;39.702;2023-03-03T17:42:17;100269.00;;;7.37;40.26